Ty Croes, United Kingdom
Current Conditions -  °F | °C
As of 9:50 AM on Sunday 26 Oct 2014 (Local Time) from EGOV Reporting Station
Broken Clouds Broken Clouds  
Wind Chill: 57°   Ceiling: 4000
Heat Index: 57°   Visibility: 6mi
Dew Point: 54°   Wind: 36mph
Humidity: 88%   Direction: 210°SSW
Pressure: 29.91"   Gusts: NA
Location:  53.19°N, 4.46°W
Report Text: EGOV 260850Z AUTO 21031KT 9999 BKN040/// 14/12 Q1013 RERA
Loading
Personal Weather Stations






























Interactive Weather Map
Tropical Storm Tracking
New forecast layout! Learn more

10-Day Weather Forecast

Advertisements
Track Severe Weather on mobile